Time;durP1;ratioP1;P1;durP2;ratioP2;P2;SDS_P1;SDS_P2;PMS_P1;PMS_P2;Temp;Humidity;BMP_temperature;BMP_pressure;BME280_temperature;BME280_humidity;BME280_pressure;Samples;Min_cycle;Max_cycle;Signal;HPM_P1;HPM_P2
2021/07/18 00:00:12;;;;;;;1.33;0.88;;;17.90;82.10;;;;;;5014219;28;20033;-77
2021/07/18 00:02:38;;;;;;;0.80;0.80;;;17.90;82.20;;;;;;5014487;28;20030;-79
2021/07/18 00:05:04;;;;;;;2.08;0.98;;;17.90;82.30;;;;;;5014287;28;20040;-77
2021/07/18 00:07:30;;;;;;;1.50;1.20;;;17.90;82.40;;;;;;5014395;28;20025;-77
2021/07/18 00:09:56;;;;;;;0.90;0.90;;;17.90;82.40;;;;;;5029372;28;20041;-78
2021/07/18 00:12:21;;;;;;;1.45;1.02;;;17.90;82.50;;;;;;5013837;28;20104;-79
2021/07/18 00:14:47;;;;;;;1.83;1.13;;;17.90;82.50;;;;;;5014231;28;20467;-77
2021/07/18 00:17:13;;;;;;;1.77;1.23;;;17.90;82.60;;;;;;5014109;28;20018;-78
2021/07/18 00:19:38;;;;;;;1.65;1.10;;;17.90;82.70;;;;;;5014287;28;20034;-78
2021/07/18 00:22:05;;;;;;;1.23;0.98;;;17.80;82.80;;;;;;5014052;28;20022;-77
2021/07/18 00:24:31;;;;;;;1.40;1.13;;;17.80;82.90;;;;;;5014018;28;20387;-77
2021/07/18 00:26:57;;;;;;;1.15;1.00;;;17.70;83.00;;;;;;5013621;28;20029;-77
2021/07/18 00:29:22;;;;;;;1.80;1.08;;;17.70;83.10;;;;;;5029210;28;20064;-77
2021/07/18 00:31:48;;;;;;;1.38;1.20;;;17.70;83.30;;;;;;5014088;28;20547;-77
2021/07/18 00:34:13;;;;;;;0.70;0.70;;;17.70;83.30;;;;;;5012731;28;20022;-79
2021/07/18 00:36:40;;;;;;;0.57;0.57;;;17.70;83.50;;;;;;5013795;28;20028;-79
2021/07/18 00:39:07;;;;;;;1.23;0.80;;;17.70;83.40;;;;;;5014039;28;20061;-78
2021/07/18 00:41:33;;;;;;;0.52;0.52;;;17.70;83.30;;;;;;5013416;28;20022;-79
2021/07/18 00:43:59;;;;;;;0.82;0.80;;;17.70;83.20;;;;;;5014055;28;20422;-78
2021/07/18 00:46:24;;;;;;;1.23;0.70;;;17.70;83.30;;;;;;5013750;28;20026;-78
2021/07/18 00:48:50;;;;;;;0.68;0.57;;;17.60;83.40;;;;;;5013756;28;20022;-77
2021/07/18 00:51:15;;;;;;;1.08;0.90;;;17.50;83.60;;;;;;5013815;28;20029;-78
2021/07/18 00:53:42;;;;;;;0.85;0.77;;;17.50;83.80;;;;;;5013599;28;20049;-78
2021/07/18 00:56:08;;;;;;;0.60;0.52;;;17.50;83.90;;;;;;5012488;28;20101;-78
2021/07/18 00:58:34;;;;;;;0.77;0.60;;;17.50;83.90;;;;;;5013551;28;20058;-78
2021/07/18 01:01:00;;;;;;;1.95;0.75;;;17.60;83.90;;;;;;5013770;28;20033;-78
2021/07/18 01:03:26;;;;;;;0.93;0.90;;;17.50;83.90;;;;;;5013832;28;20029;-79
2021/07/18 01:05:53;;;;;;;0.68;0.68;;;17.50;84.10;;;;;;5013362;28;20038;-79
2021/07/18 01:08:18;;;;;;;1.67;0.75;;;17.50;84.10;;;;;;5013581;28;20025;-78
2021/07/18 01:10:44;;;;;;;0.60;0.60;;;17.50;84.20;;;;;;5013291;28;20022;-79
2021/07/18 01:13:10;;;;;;;1.10;1.00;;;17.50;84.30;;;;;;5013847;28;20026;-77
2021/07/18 01:15:39;;;;;;;2.60;1.50;;;17.50;84.30;;;;;;5013513;28;20045;-77
2021/07/18 01:18:06;;;;;;;1.58;0.95;;;17.50;84.50;;;;;;5013547;28;20105;-79
2021/07/18 01:20:33;;;;;;;1.40;1.00;;;17.50;84.60;;;;;;5028601;28;20450;-78
2021/07/18 01:22:59;;;;;;;0.60;0.60;;;17.50;84.70;;;;;;5013227;28;20491;-78
2021/07/18 01:25:24;;;;;;;1.00;0.85;;;17.50;84.80;;;;;;5012935;28;20435;-76
2021/07/18 01:27:50;;;;;;;2.55;1.17;;;17.50;84.70;;;;;;5013798;28;20021;-78
2021/07/18 01:30:16;;;;;;;1.52;1.17;;;17.50;84.90;;;;;;5013403;28;20080;-78
2021/07/18 01:32:42;;;;;;;1.13;0.90;;;17.40;85.10;;;;;;5013318;28;20053;-78
2021/07/18 01:35:09;;;;;;;1.67;1.17;;;17.40;85.30;;;;;;5013428;28;20022;-79
2021/07/18 01:37:35;;;;;;;0.70;0.60;;;17.30;85.40;;;;;;5013488;28;20033;-78
2021/07/18 01:40:00;;;;;;;1.55;1.42;;;17.30;85.50;;;;;;5012945;28;20383;-78
2021/07/18 01:42:26;;;;;;;1.27;0.98;;;17.30;85.70;;;;;;5028381;28;20382;-78
2021/07/18 01:44:52;;;;;;;0.80;0.80;;;17.20;85.70;;;;;;5013379;28;20502;-77
2021/07/18 01:47:18;;;;;;;1.33;1.15;;;17.30;85.80;;;;;;5013646;28;20449;-78
2021/07/18 01:49:44;;;;;;;0.98;0.90;;;17.20;86.00;;;;;;5013547;28;20022;-78
2021/07/18 01:52:10;;;;;;;0.77;0.77;;;17.20;86.10;;;;;;5013330;28;20029;-78
2021/07/18 01:54:38;;;;;;;1.60;1.10;;;17.20;86.00;;;;;;5012891;28;20022;-79
2021/07/18 01:57:14;;;;;;;1.27;1.17;;;17.20;86.10;;;;;;5013296;28;20049;-78
2021/07/18 01:59:40;;;;;;;1.30;1.20;;;17.20;86.10;;;;;;5013321;28;20125;-78
2021/07/18 02:02:08;;;;;;;1.77;1.00;;;17.20;86.20;;;;;;5013299;28;20395;-78
2021/07/18 02:04:34;;;;;;;1.70;1.17;;;17.20;86.40;;;;;;5012848;28;20109;-78
2021/07/18 02:07:02;;;;;;;1.13;1.02;;;17.10;86.40;;;;;;5015726;28;20030;-77
2021/07/18 02:09:27;;;;;;;1.30;0.95;;;17.20;86.50;;;;;;5016422;28;20030;-77
2021/07/18 02:11:53;;;;;;;1.05;0.90;;;17.20;86.50;;;;;;5016871;28;20042;-79
2021/07/18 02:14:18;;;;;;;1.95;1.25;;;17.20;86.40;;;;;;5031888;28;20046;-78
2021/07/18 02:16:44;;;;;;;1.80;1.10;;;17.20;86.40;;;;;;5016826;28;20467;-78
2021/07/18 02:19:10;;;;;;;1.60;1.23;;;17.20;86.60;;;;;;5016534;28;20360;-79
2021/07/18 02:21:39;;;;;;;1.92;1.10;;;17.20;86.80;;;;;;5016663;28;20022;-78
2021/07/18 02:24:08;;;;;;;;;;;17.20;87.00;;;;;;5016270;28;20394;-78
2021/07/18 02:26:34;;;;;;;1.30;1.20;;;17.10;86.50;;;;;;5015088;28;19905;-77
2021/07/18 02:29:00;;;;;;;1.48;1.10;;;17.20;86.80;;;;;;5016136;28;20020;-78
2021/07/18 02:31:27;;;;;;;0.98;0.88;;;17.20;86.90;;;;;;5016413;28;20022;-78
2021/07/18 02:33:52;;;;;;;1.45;0.95;;;17.20;86.90;;;;;;5016368;28;20108;-78
2021/07/18 02:36:18;;;;;;;1.58;0.90;;;17.20;87.00;;;;;;5016442;28;20100;-77
2021/07/18 02:38:44;;;;;;;1.27;0.93;;;17.20;87.00;;;;;;5015784;28;20022;-78
2021/07/18 02:41:09;;;;;;;2.58;1.20;;;17.20;87.00;;;;;;5016133;28;20022;-78
2021/07/18 02:43:35;;;;;;;1.77;1.45;;;17.30;87.10;;;;;;5016025;28;20112;-78
2021/07/18 02:46:00;;;;;;;1.92;1.30;;;17.30;87.30;;;;;;5016048;28;20048;-78
2021/07/18 02:48:26;;;;;;;1.48;1.00;;;17.20;87.30;;;;;;5016171;28;20028;-78
2021/07/18 02:50:52;;;;;;;0.80;0.80;;;17.20;87.40;;;;;;5015786;28;20089;-79
2021/07/18 02:53:17;;;;;;;3.10;0.90;;;17.20;87.50;;;;;;5015473;28;20050;-79
2021/07/18 02:55:43;;;;;;;1.23;0.95;;;17.30;87.60;;;;;;5015854;28;20470;-77
2021/07/18 02:58:08;;;;;;;1.08;0.95;;;17.30;87.50;;;;;;5031098;28;20045;-78
2021/07/18 03:00:34;;;;;;;1.15;0.95;;;17.40;87.60;;;;;;5015644;28;20097;-78
2021/07/18 03:03:00;;;;;;;0.95;0.85;;;17.40;87.40;;;;;;5015674;28;20017;-78
2021/07/18 03:05:25;;;;;;;1.40;0.90;;;17.40;87.50;;;;;;5015388;28;20444;-78
2021/07/18 03:07:51;;;;;;;0.65;0.65;;;17.40;87.60;;;;;;5015172;28;20025;-77
2021/07/18 03:10:18;;;;;;;1.90;0.80;;;17.50;87.60;;;;;;5015615;28;20037;-77
2021/07/18 03:12:44;;;;;;;1.15;1.05;;;17.50;87.70;;;;;;5015742;28;20030;-77
2021/07/18 03:15:14;;;;;;;1.00;1.00;;;17.50;87.70;;;;;;5030433;28;20053;-78
2021/07/18 03:17:40;;;;;;;0.93;0.93;;;17.40;87.80;;;;;;5014862;28;20054;-78
2021/07/18 03:20:11;;;;;;;1.33;0.95;;;17.40;88.00;;;;;;5015259;28;20533;-77
2021/07/18 03:22:37;;;;;;;2.38;1.58;;;17.50;88.00;;;;;;5014620;28;20049;-79
2021/07/18 03:25:05;;;;;;;1.20;0.90;;;17.40;88.10;;;;;;5015082;28;20041;-77
2021/07/18 03:27:31;;;;;;;0.90;0.90;;;17.40;88.20;;;;;;5015234;28;20021;-77
2021/07/18 03:29:56;;;;;;;1.30;1.13;;;17.40;88.90;;;;;;5015209;28;20505;-77
2021/07/18 03:32:22;;;;;;;1.38;1.27;;;17.40;88.30;;;;;;5015041;28;20514;-76
2021/07/18 03:34:47;;;;;;;1.77;1.42;;;17.40;88.30;;;;;;5015038;28;20026;-77
2021/07/18 03:37:14;;;;;;;1.23;1.10;;;17.40;88.50;;;;;;5014605;28;20029;-76
2021/07/18 03:39:39;;;;;;;1.50;1.20;;;17.40;88.50;;;;;;5014969;28;20021;-77
2021/07/18 03:42:05;;;;;;;1.60;1.25;;;17.40;88.70;;;;;;5014928;28;20022;-77
2021/07/18 03:44:30;;;;;;;4.30;1.80;;;17.40;88.70;;;;;;5030052;28;20061;-76
2021/07/18 03:46:56;;;;;;;1.58;1.30;;;17.40;88.80;;;;;;5014898;28;20376;-77
2021/07/18 03:49:22;;;;;;;1.33;1.00;;;17.40;88.70;;;;;;5014649;28;20030;-76
2021/07/18 03:51:47;;;;;;;2.05;1.48;;;17.40;88.60;;;;;;5014340;28;20379;-77
2021/07/18 03:54:13;;;;;;;1.30;1.08;;;17.40;88.70;;;;;;5014804;28;20099;-77
2021/07/18 03:56:38;;;;;;;2.03;1.35;;;17.40;88.80;;;;;;5014582;28;20494;-78
2021/07/18 03:59:04;;;;;;;2.33;1.90;;;17.30;88.80;;;;;;5014730;28;20022;-77
2021/07/18 04:01:29;;;;;;;1.50;1.08;;;17.30;88.90;;;;;;5014613;28;20026;-78
2021/07/18 04:03:55;;;;;;;1.65;1.45;;;17.30;88.90;;;;;;5014526;28;20364;-77
2021/07/18 04:06:20;;;;;;;2.20;1.52;;;17.40;88.90;;;;;;5014059;28;20037;-77
2021/07/18 04:08:46;;;;;;;1.73;1.20;;;17.30;88.90;;;;;;5029739;28;20391;-77
2021/07/18 04:11:12;;;;;;;1.50;1.25;;;17.30;89.10;;;;;;5029692;28;20060;-77
2021/07/18 04:13:39;;;;;;;1.05;0.85;;;17.30;89.20;;;;;;5014304;28;20025;-78
2021/07/18 04:16:06;;;;;;;1.73;1.42;;;17.30;89.20;;;;;;5014388;28;20026;-78
2021/07/18 04:18:32;;;;;;;2.65;1.58;;;17.30;89.10;;;;;;5014214;28;20020;-78
2021/07/18 04:20:58;;;;;;;5.63;2.35;;;17.30;89.30;;;;;;5013537;28;20483;-76
2021/07/18 04:23:24;;;;;;;3.25;1.77;;;17.30;89.60;;;;;;5014060;28;20467;-76
2021/07/18 04:25:49;;;;;;;2.63;1.90;;;17.20;89.50;;;;;;5014116;28;20029;-77
2021/07/18 04:28:15;;;;;;;2.38;1.85;;;17.20;89.70;;;;;;5013942;28;20078;-76
2021/07/18 04:30:41;;;;;;;3.50;1.92;;;17.20;89.90;;;;;;5013790;28;20026;-76
2021/07/18 04:33:07;;;;;;;3.08;2.22;;;17.10;89.90;;;;;;5029256;28;20083;-77
2021/07/18 04:35:32;;;;;;;3.17;1.85;;;17.10;90.00;;;;;;5013462;28;20104;-76
2021/07/18 04:37:58;;;;;;;2.17;1.50;;;17.10;90.00;;;;;;5013791;28;20018;-76
2021/07/18 04:40:26;;;;;;;2.47;1.58;;;17.10;90.00;;;;;;5013929;28;20021;-76
2021/07/18 04:42:52;;;;;;;0.88;0.85;;;17.20;90.00;;;;;;5013773;28;20407;-77
2021/07/18 04:45:17;;;;;;;1.92;1.40;;;17.20;89.90;;;;;;5013750;28;20034;-78
2021/07/18 04:47:51;;;;;;;1.38;1.13;;;17.20;89.80;;;;;;5013847;28;20029;-77
2021/07/18 04:50:18;;;;;;;2.40;1.40;;;17.20;89.90;;;;;;5013860;28;20033;-76
2021/07/18 04:52:43;;;;;;;1.70;1.45;;;17.20;89.90;;;;;;5028901;28;20048;-77
2021/07/18 04:55:10;;;;;;;1.70;1.50;;;17.20;89.90;;;;;;5013889;28;20030;-76
2021/07/18 04:57:37;;;;;;;2.30;1.48;;;17.20;89.90;;;;;;5013716;28;20029;-77
2021/07/18 05:00:08;;;;;;;1.73;1.42;;;17.20;90.00;;;;;;5013470;28;20502;-78
2021/07/18 05:02:33;;;;;;;1.40;1.30;;;17.20;90.00;;;;;;5013202;28;20073;-76
2021/07/18 05:04:59;;;;;;;1.55;1.38;;;17.20;90.00;;;;;;5013643;28;20037;-75
2021/07/18 05:07:24;;;;;;;1.55;1.45;;;17.20;90.00;;;;;;5013672;28;20468;-78
2021/07/18 05:09:50;;;;;;;2.95;1.60;;;17.20;90.00;;;;;;5013445;28;20065;-76
2021/07/18 05:12:15;;;;;;;2.25;1.55;;;17.20;90.00;;;;;;5013566;28;20097;-76
2021/07/18 05:14:42;;;;;;;2.58;1.60;;;17.20;90.00;;;;;;5028393;28;20386;-77
2021/07/18 05:17:08;;;;;;;1.55;1.40;;;17.30;90.00;;;;;;5013178;28;20136;-76
2021/07/18 05:19:34;;;;;;;1.70;1.20;;;17.30;90.00;;;;;;5013750;28;20022;-75
2021/07/18 05:22:00;;;;;;;2.97;1.98;;;17.30;90.00;;;;;;5013234;28;20024;-77
2021/07/18 05:24:25;;;;;;;2.50;1.75;;;17.30;90.00;;;;;;5013303;28;20030;-78
2021/07/18 05:26:52;;;;;;;2.60;1.98;;;17.30;90.00;;;;;;5013338;28;20024;-76
2021/07/18 05:29:17;;;;;;;2.20;1.52;;;17.40;90.00;;;;;;5013358;28;20045;-76
2021/07/18 05:31:45;;;;;;;2.15;1.70;;;17.40;90.00;;;;;;5012686;28;20057;-75
2021/07/18 05:34:10;;;;;;;1.95;1.45;;;17.50;89.90;;;;;;5012093;28;20018;-76
2021/07/18 05:36:36;;;;;;;2.80;1.67;;;17.50;89.70;;;;;;5013453;28;20026;-79
2021/07/18 05:39:02;;;;;;;1.95;1.77;;;17.50;89.70;;;;;;5013467;28;20019;-83
2021/07/18 05:41:28;;;;;;;3.63;2.40;;;17.50;89.80;;;;;;5014844;28;20105;-77
2021/07/18 05:43:53;;;;;;;4.00;2.25;;;17.40;90.00;;;;;;5017252;28;20060;-77
2021/07/18 05:46:19;;;;;;;2.15;1.90;;;17.40;90.00;;;;;;5016799;28;20113;-76
2021/07/18 05:48:44;;;;;;;2.63;2.00;;;17.40;90.00;;;;;;5017525;28;20018;-76
2021/07/18 05:51:10;;;;;;;2.28;1.70;;;17.50;90.00;;;;;;5017203;28;20026;-76
2021/07/18 05:53:35;;;;;;;2.30;1.92;;;17.50;90.00;;;;;;5017371;28;20431;-77
2021/07/18 05:56:01;;;;;;;2.25;1.38;;;17.50;90.00;;;;;;5017011;28;20041;-77
2021/07/18 05:58:26;;;;;;;1.85;1.38;;;17.70;90.00;;;;;;5017037;28;20054;-77
2021/07/18 06:00:52;;;;;;;2.55;1.83;;;17.70;89.70;;;;;;5016791;28;20382;-77
2021/07/18 06:03:17;;;;;;;1.42;1.33;;;17.80;89.70;;;;;;5016924;28;20034;-75
2021/07/18 06:05:43;;;;;;;2.03;1.38;;;17.80;89.60;;;;;;5016590;28;20037;-79
2021/07/18 06:08:09;;;;;;;1.98;1.35;;;17.90;89.60;;;;;;5016979;28;20089;-80
2021/07/18 06:10:34;;;;;;;1.92;1.52;;;18.00;89.40;;;;;;5016642;28;20030;-79
2021/07/18 06:13:00;;;;;;;1.63;1.50;;;18.10;89.20;;;;;;5016804;28;20018;-80
2021/07/18 06:15:26;;;;;;;1.88;1.52;;;18.20;89.10;;;;;;5016709;28;20033;-80
2021/07/18 06:17:51;;;;;;;2.10;1.60;;;18.20;89.10;;;;;;5017068;28;20026;-79
2021/07/18 06:20:19;;;;;;;1.17;1.08;;;18.20;89.10;;;;;;5016640;28;20109;-80
2021/07/18 06:22:45;;;;;;;1.17;1.08;;;18.30;89.10;;;;;;5016497;28;20053;-79
2021/07/18 06:25:12;;;;;;;1.15;1.10;;;18.40;88.90;;;;;;5016566;28;20034;-80
2021/07/18 06:27:40;;;;;;;1.67;1.00;;;18.50;88.80;;;;;;5016528;28;20065;-79
2021/07/18 06:30:11;;;;;;;1.27;1.00;;;18.50;88.70;;;;;;5016074;28;20026;-79
2021/07/18 06:32:37;;;;;;;1.00;0.82;;;18.60;88.70;;;;;;5016559;28;20552;-80
2021/07/18 06:35:03;;;;;;;1.40;1.00;;;18.70;88.60;;;;;;5016325;28;20025;-79
2021/07/18 06:37:29;;;;;;;0.95;0.85;;;18.80;88.50;;;;;;5014944;28;20022;-79
2021/07/18 06:39:54;;;;;;;0.65;0.65;;;18.90;88.30;;;;;;5016024;28;20376;-78
2021/07/18 06:42:20;;;;;;;1.10;0.95;;;19.00;88.30;;;;;;5015984;28;20018;-80
2021/07/18 06:44:46;;;;;;;0.75;0.75;;;19.10;88.10;;;;;;5015720;28;20057;-81
2021/07/18 06:47:12;;;;;;;0.85;0.85;;;19.30;88.10;;;;;;5031180;28;20549;-80
2021/07/18 06:49:37;;;;;;;0.82;0.70;;;19.30;87.80;;;;;;5015957;28;20034;-78
2021/07/18 06:52:03;;;;;;;0.82;0.60;;;19.40;87.70;;;;;;5014670;28;20029;-79
2021/07/18 06:54:28;;;;;;;0.70;0.60;;;19.50;87.70;;;;;;5016283;28;20042;-79
2021/07/18 06:56:54;;;;;;;0.60;0.60;;;19.60;87.70;;;;;;5015682;28;20026;-78
2021/07/18 06:59:20;;;;;;;0.82;0.80;;;19.60;87.50;;;;;;5015180;28;20084;-79
2021/07/18 07:01:46;;;;;;;0.88;0.88;;;19.80;87.30;;;;;;5031108;28;20053;-79
2021/07/18 07:04:11;;;;;;;0.85;0.68;;;19.80;87.30;;;;;;5015668;28;20544;-78
2021/07/18 07:06:37;;;;;;;0.60;0.60;;;19.80;87.30;;;;;;5015957;28;20101;-79
2021/07/18 07:09:03;;;;;;;0.73;0.68;;;19.90;87.20;;;;;;5015649;28;20022;-78
2021/07/18 07:11:28;;;;;;;0.80;0.80;;;20.00;87.30;;;;;;5015234;28;20117;-79
2021/07/18 07:13:54;;;;;;;1.33;1.02;;;20.10;87.30;;;;;;5015051;28;20021;-79
2021/07/18 07:16:19;;;;;;;1.58;1.20;;;20.20;87.00;;;;;;5015471;28;20041;-79
2021/07/18 07:18:45;;;;;;;1.10;0.90;;;20.20;87.00;;;;;;5015216;28;20099;-79
2021/07/18 07:21:13;;;;;;;0.70;0.70;;;20.30;87.10;;;;;;5015252;28;20033;-79
2021/07/18 07:23:39;;;;;;;0.98;0.93;;;20.40;87.10;;;;;;5015114;28;20115;-80
2021/07/18 07:26:05;;;;;;;0.75;0.75;;;20.50;87.00;;;;;;5015253;28;20073;-79
2021/07/18 07:28:32;;;;;;;0.75;0.70;;;20.60;86.90;;;;;;5014599;28;20025;-79
2021/07/18 07:30:58;;;;;;;0.73;0.73;;;20.70;86.70;;;;;;5015031;28;20041;-77
2021/07/18 07:33:24;;;;;;;2.30;1.42;;;20.80;86.50;;;;;;5015025;28;20041;-78
2021/07/18 07:35:51;;;;;;;1.77;1.38;;;20.80;86.40;;;;;;5015069;28;20037;-78
2021/07/18 07:38:17;;;;;;;1.08;1.00;;;20.90;86.40;;;;;;5015028;28;20018;-78
2021/07/18 07:40:42;;;;;;;1.05;0.95;;;20.90;86.40;;;;;;5014963;28;20033;-77
2021/07/18 07:43:08;;;;;;;1.73;1.08;;;21.10;86.30;;;;;;5014545;28;20105;-81
2021/07/18 07:45:34;;;;;;;1.35;1.25;;;21.20;85.90;;;;;;5015183;28;20061;-78
2021/07/18 07:47:59;;;;;;;1.55;1.30;;;21.20;85.80;;;;;;5015047;28;20034;-81
2021/07/18 07:50:25;;;;;;;1.50;1.40;;;21.30;86.40;;;;;;5014812;28;20080;-76
2021/07/18 07:52:50;;;;;;;1.52;1.30;;;21.50;85.60;;;;;;5014674;28;20054;-76
2021/07/18 07:55:17;;;;;;;0.93;0.80;;;21.50;85.50;;;;;;5015007;28;20025;-78
2021/07/18 07:57:42;;;;;;;1.80;1.20;;;21.60;85.40;;;;;;5029587;28;20053;-77
2021/07/18 08:00:11;;;;;;;1.17;1.10;;;21.70;85.50;;;;;;5014770;28;20056;-78
2021/07/18 08:02:37;;;;;;;1.85;1.35;;;21.70;85.00;;;;;;5014549;28;20022;-78
2021/07/18 08:05:03;;;;;;;1.35;1.15;;;21.80;85.00;;;;;;5013884;28;20034;-79
2021/07/18 08:07:29;;;;;;;0.75;0.70;;;21.90;85.10;;;;;;5014532;28;20049;-77
2021/07/18 08:09:54;;;;;;;1.58;0.90;;;22.00;84.90;;;;;;5014711;28;20056;-78
2021/07/18 08:12:20;;;;;;;0.80;0.80;;;22.10;84.80;;;;;;5014079;28;20053;-78
2021/07/18 08:14:45;;;;;;;0.60;0.60;;;22.20;84.70;;;;;;5014436;28;20029;-78
2021/07/18 08:17:14;;;;;;;0.57;0.57;;;22.30;84.50;;;;;;5014120;28;20029;-77
2021/07/18 08:19:42;;;;;;;1.02;0.90;;;22.40;84.30;;;;;;5014174;28;20026;-78
2021/07/18 08:22:08;;;;;;;1.20;0.90;;;22.50;84.00;;;;;;5013992;28;20046;-75
2021/07/18 08:24:34;;;;;;;0.60;0.60;;;22.60;83.80;;;;;;5014088;28;20113;-76
2021/07/18 08:27:00;;;;;;;0.75;0.60;;;22.70;83.60;;;;;;5013546;28;20022;-76
2021/07/18 08:29:26;;;;;;;0.70;0.70;;;22.80;83.50;;;;;;5013999;28;20032;-74
2021/07/18 08:31:56;;;;;;;1.83;1.10;;;22.90;83.50;;;;;;5014089;28;20050;-73
2021/07/18 08:34:25;;;;;;;0.98;0.85;;;22.90;83.20;;;;;;5014063;28;20058;-72
2021/07/18 08:36:52;;;;;;;1.55;0.90;;;23.00;83.30;;;;;;5013886;28;20076;-74
2021/07/18 08:39:17;;;;;;;1.77;1.23;;;23.10;83.20;;;;;;5013732;28;20033;-74
2021/07/18 08:41:44;;;;;;;1.52;1.42;;;23.20;83.30;;;;;;5013304;28;20022;-73
2021/07/18 08:44:12;;;;;;;1.38;1.08;;;23.20;82.80;;;;;;5013773;28;20108;-74
2021/07/18 08:46:38;;;;;;;2.05;1.10;;;23.20;82.80;;;;;;5013672;28;20034;-73
2021/07/18 08:49:08;;;;;;;1.55;1.23;;;23.30;82.70;;;;;;5013600;28;20024;-73
2021/07/18 08:51:38;;;;;;;1.08;0.98;;;23.50;82.50;;;;;;5013580;28;20360;-73
2021/07/18 08:54:04;;;;;;;0.82;0.70;;;23.50;82.20;;;;;;5013788;28;20018;-72
2021/07/18 08:56:32;;;;;;;2.28;0.88;;;23.60;82.30;;;;;;5013268;28;20317;-73
2021/07/18 08:59:06;;;;;;;0.50;0.50;;;23.70;82.20;;;;;;5013575;28;20037;-72
2021/07/18 09:01:33;;;;;;;0.57;0.57;;;23.80;82.00;;;;;;5013623;28;20018;-74
2021/07/18 09:03:59;;;;;;;1.20;1.10;;;23.80;82.10;;;;;;5013419;28;20105;-74
2021/07/18 09:06:39;;;;;;;1.25;1.15;;;23.80;81.80;;;;;;5013509;28;20108;-73
2021/07/18 09:09:07;;;;;;;1.25;1.00;;;23.90;81.80;;;;;;5013295;28;20026;-73
2021/07/18 09:11:33;;;;;;;1.73;1.30;;;23.90;81.40;;;;;;5013408;28;20022;-72
2021/07/18 09:14:04;;;;;;;1.15;1.05;;;24.00;81.60;;;;;;5028562;28;20028;-73
2021/07/18 09:16:35;;;;;;;1.33;1.05;;;24.10;81.50;;;;;;5015019;28;20522;-72
2021/07/18 09:19:25;;;;;;;2.30;2.00;;;24.20;81.00;;;;;;5017523;28;20037;-74
2021/07/18 09:21:59;;;;;;;1.98;1.40;;;24.30;80.70;;;;;;5017116;28;20022;-72
2021/07/18 09:24:28;;;;;;;1.40;1.25;;;24.30;81.00;;;;;;5016984;28;20025;-72
2021/07/18 09:27:02;;;;;;;0.70;0.70;;;24.30;80.90;;;;;;5017390;28;20391;-71
2021/07/18 09:29:28;;;;;;;1.42;1.00;;;24.50;80.70;;;;;;5032566;28;20034;-72
2021/07/18 09:32:11;;;;;;;1.20;1.00;;;24.60;80.40;;;;;;5017299;28;20033;-72
2021/07/18 09:34:42;;;;;;;0.95;0.95;;;24.60;80.10;;;;;;5017131;28;20033;-74
2021/07/18 09:37:17;;;;;;;1.13;0.90;;;24.60;80.30;;;;;;5017329;28;20383;-73
2021/07/18 09:39:56;;;;;;;0.85;0.85;;;24.60;80.10;;;;;;5016871;28;20475;-74
2021/07/18 09:42:49;;;;;;;0.70;0.70;;;24.70;79.80;;;;;;5032306;28;20026;-73
2021/07/18 09:45:19;;;;;;;1.38;1.05;;;24.80;79.80;;;;;;5015478;28;20137;-73
2021/07/18 09:47:51;;;;;;;0.55;0.55;;;24.90;79.30;;;;;;5016926;28;20026;-72
2021/07/18 09:50:19;;;;;;;2.05;1.00;;;24.90;79.40;;;;;;5016915;28;20060;-72
2021/07/18 09:52:48;;;;;;;1.20;1.10;;;25.00;79.00;;;;;;5031633;28;20105;-72
2021/07/18 09:55:24;;;;;;;0.73;0.52;;;25.00;79.20;;;;;;5032070;28;20034;-72
2021/07/18 09:57:53;;;;;;;1.23;0.85;;;25.00;79.00;;;;;;5016808;28;20018;-73
2021/07/18 10:00:22;;;;;;;0.90;0.85;;;25.10;79.00;;;;;;5016832;28;20034;-72
2021/07/18 10:02:51;;;;;;;0.50;0.50;;;25.20;79.00;;;;;;5031821;28;20113;-72
2021/07/18 10:05:25;;;;;;;0.50;0.50;;;25.20;78.80;;;;;;5016638;28;20080;-73
2021/07/18 10:07:51;;;;;;;0.80;0.60;;;25.40;78.50;;;;;;5031157;28;20025;-72
2021/07/18 10:10:17;;;;;;;0.70;0.70;;;25.40;78.30;;;;;;5016564;28;20402;-71
2021/07/18 10:12:43;;;;;;;0.80;0.80;;;25.50;78.10;;;;;;5031795;28;20029;-72
2021/07/18 10:15:09;;;;;;;0.77;0.68;;;25.60;77.90;;;;;;5016393;28;20026;-72
2021/07/18 10:17:35;;;;;;;0.80;0.77;;;25.70;77.90;;;;;;5031574;28;20026;-73
2021/07/18 10:20:00;;;;;;;0.50;0.50;;;25.70;77.60;;;;;;5016341;28;20018;-72
2021/07/18 10:22:27;;;;;;;0.70;0.70;;;25.80;77.60;;;;;;5015929;28;20530;-72
2021/07/18 10:24:54;;;;;;;0.73;0.73;;;25.90;77.50;;;;;;5016200;28;20038;-73
2021/07/18 10:27:21;;;;;;;0.77;0.75;;;26.00;77.30;;;;;;5015742;28;20021;-72
2021/07/18 10:29:48;;;;;;;0.80;0.80;;;26.00;77.30;;;;;;5016117;28;20101;-71
2021/07/18 10:32:15;;;;;;;1.00;1.00;;;26.00;76.50;;;;;;5016304;28;20030;-72
2021/07/18 10:34:41;;;;;;;1.02;1.02;;;25.90;76.80;;;;;;5016137;28;20026;-74
2021/07/18 10:37:12;;;;;;;0.50;0.50;;;26.00;77.00;;;;;;5015648;28;20033;-71
2021/07/18 10:39:42;;;;;;;0.70;0.70;;;26.00;77.00;;;;;;5015963;28;20029;-72
2021/07/18 10:42:15;;;;;;;1.48;1.20;;;26.00;77.40;;;;;;5016034;28;20483;-73
2021/07/18 10:44:44;;;;;;;1.00;1.00;;;26.00;76.00;;;;;;5015952;28;20544;-72
2021/07/18 10:47:11;;;;;;;0.70;0.70;;;25.90;76.40;;;;;;5015819;28;20018;-72
2021/07/18 10:49:48;;;;;;;1.40;1.30;;;25.90;76.60;;;;;;5015823;28;20018;-72
2021/07/18 10:52:15;;;;;;;0.55;0.55;;;26.00;77.10;;;;;;5015519;28;20540;-72
2021/07/18 10:54:42;;;;;;;1.00;1.00;;;26.10;76.30;;;;;;5015683;28;20471;-72
2021/07/18 10:57:21;;;;;;;0.98;0.98;;;26.30;75.90;;;;;;5015463;28;20065;-72
2021/07/18 10:59:46;;;;;;;1.40;1.30;;;26.40;75.20;;;;;;5015645;28;20037;-72
2021/07/18 11:02:15;;;;;;;0.85;0.82;;;26.30;75.40;;;;;;5015490;28;20018;-72
2021/07/18 11:04:52;;;;;;;0.68;0.68;;;26.40;75.40;;;;;;5015544;28;20184;-72
2021/07/18 11:07:20;;;;;;;0.88;0.88;;;26.40;75.30;;;;;;5015519;28;20030;-71
2021/07/18 11:09:56;;;;;;;1.00;1.00;;;26.40;75.40;;;;;;5030674;28;20065;-72
2021/07/18 11:12:31;;;;;;;1.00;0.90;;;26.50;74.90;;;;;;5015467;28;20429;-71
2021/07/18 11:15:15;;;;;;;1.08;0.98;;;26.60;75.20;;;;;;5015351;28;20118;-72
2021/07/18 11:18:06;;;;;;;0.85;0.85;;;26.60;74.80;;;;;;5015301;28;20101;-70
2021/07/18 11:20:56;;;;;;;0.85;0.85;;;26.70;74.90;;;;;;5014788;28;20053;-71
2021/07/18 11:23:34;;;;;;;0.85;0.85;;;26.70;74.70;;;;;;5015029;28;20072;-72
2021/07/18 11:26:02;;;;;;;0.70;0.70;;;26.80;74.70;;;;;;5015158;28;20038;-73
2021/07/18 11:28:30;;;;;;;0.73;0.73;;;26.90;74.40;;;;;;5014984;28;20372;-73
2021/07/18 11:31:13;;;;;;;0.82;0.82;;;27.00;74.40;;;;;;5015010;28;20093;-72
2021/07/18 11:33:45;;;;;;;0.80;0.80;;;27.60;73.70;;;;;;5015206;28;20029;-72
2021/07/18 11:36:30;;;;;;;0.90;0.90;;;28.20;72.60;;;;;;5014465;28;20022;-72
2021/07/18 11:38:55;;;;;;;1.10;1.00;;;28.90;72.00;;;;;;5013861;28;20080;-72
2021/07/18 11:41:23;;;;;;;0.70;0.70;;;29.60;70.80;;;;;;5030161;28;20025;-73
2021/07/18 11:43:54;;;;;;;0.70;0.70;;;30.20;69.50;;;;;;5014760;28;20032;-72
2021/07/18 11:46:22;;;;;;;1.50;1.40;;;30.80;67.90;;;;;;5014508;28;20474;-72
2021/07/18 11:48:50;;;;;;;1.20;1.13;;;30.70;67.60;;;;;;5014229;28;20030;-72
2021/07/18 11:51:18;;;;;;;1.17;1.10;;;30.60;68.20;;;;;;5014580;28;20479;-73
2021/07/18 11:53:48;;;;;;;1.10;1.10;;;30.80;68.00;;;;;;5014634;28;20028;-71
2021/07/18 11:56:26;;;;;;;1.17;1.08;;;31.00;67.50;;;;;;5014344;28;20053;-73
2021/07/18 11:58:57;;;;;;;1.08;1.00;;;30.90;67.80;;;;;;5014646;28;20080;-72
2021/07/18 12:01:25;;;;;;;1.17;1.13;;;31.10;67.40;;;;;;5014633;28;20022;-72
2021/07/18 12:03:51;;;;;;;0.55;0.55;;;31.20;67.20;;;;;;5014062;28;20018;-75
2021/07/18 12:06:21;;;;;;;1.00;1.00;;;31.00;67.60;;;;;;5014167;28;20034;-72
2021/07/18 12:08:47;;;;;;;1.00;0.82;;;30.90;67.80;;;;;;5014288;28;20040;-72
2021/07/18 12:11:13;;;;;;;0.90;0.90;;;31.00;67.80;;;;;;5014430;28;20560;-72
2021/07/18 12:13:44;;;;;;;1.30;0.80;;;31.00;67.50;;;;;;5029515;28;20057;-72
2021/07/18 12:16:10;;;;;;;1.30;1.20;;;30.90;67.50;;;;;;5014145;28;20479;-71
2021/07/18 12:18:44;;;;;;;1.67;1.23;;;30.50;67.90;;;;;;5013594;28;20033;-72
2021/07/18 12:21:22;;;;;;;1.33;1.20;;;30.20;68.40;;;;;;5014014;28;20030;-71
2021/07/18 12:24:21;;;;;;;1.50;1.13;;;30.20;68.50;;;;;;5013928;28;20060;-72
2021/07/18 12:26:49;;;;;;;1.25;1.05;;;30.20;68.40;;;;;;5014088;28;20041;-75
2021/07/18 12:29:16;;;;;;;2.35;1.40;;;30.10;68.50;;;;;;5013887;28;20045;-72
2021/07/18 12:31:43;;;;;;;1.58;1.48;;;30.20;67.40;;;;;;5013962;28;20032;-77
2021/07/18 12:34:10;;;;;;;1.27;1.17;;;30.00;67.60;;;;;;5013583;28;20045;-72
2021/07/18 12:36:57;;;;;;;1.27;1.17;;;29.80;68.00;;;;;;5013877;28;20033;-72
2021/07/18 12:39:27;;;;;;;1.00;1.00;;;29.90;68.20;;;;;;5013729;28;20028;-73
2021/07/18 12:41:54;;;;;;;1.25;1.15;;;29.90;68.00;;;;;;5013900;28;20022;-73
2021/07/18 12:44:28;;;;;;;1.15;1.08;;;30.10;67.90;;;;;;5013611;28;20109;-73
2021/07/18 12:47:16;;;;;;;1.15;1.08;;;30.20;67.00;;;;;;5013401;28;20032;-75
2021/07/18 12:49:42;;;;;;;0.80;0.70;;;30.10;67.40;;;;;;5013550;28;20056;-73